Time,TemperatureF,DewpointF,PressureIn,WindDirection,WindDirectionDegrees,WindSpeedMPH,WindSpeedGustMPH,Humidity,HourlyPrecipIn,Conditions,Clouds,dailyrainin,SoftwareType,DateUTC
2013-05-27 00:03:00,36.0,34.0,-100.00,SW,225,0.0,1.0,92,0.00,,,-99.99,,2013-05-27 04:03:00,
2013-05-27 00:12:00,35.0,34.0,-100.00,SW,235,0.0,1.0,93,0.00,,,-99.99,,2013-05-27 04:12:00,
2013-05-27 00:23:00,35.0,33.0,-100.00,West,265,1.0,1.0,93,0.00,,,-99.99,,2013-05-27 04:23:00,
2013-05-27 00:33:00,35.0,33.0,-100.00,WSW,245,1.0,1.0,93,0.00,,,-99.99,,2013-05-27 04:33:00,
2013-05-27 00:43:00,35.0,33.0,-100.00,WSW,250,1.0,1.0,93,0.00,,,-99.99,,2013-05-27 04:43:00,
2013-05-27 00:52:00,35.0,33.0,-100.00,WSW,240,1.0,1.0,93,0.00,,,-99.99,,2013-05-27 04:52:00,
2013-05-27 01:02:00,34.0,33.0,-100.00,WSW,240,1.0,1.0,93,0.00,,,-99.99,,2013-05-27 05:02:00,
2013-05-27 01:12:00,34.0,33.0,-100.00,WSW,250,1.0,1.0,93,0.00,,,-99.99,,2013-05-27 05:12:00,
2013-05-27 01:22:00,34.0,33.0,-100.00,SW,235,1.0,1.0,94,0.00,,,-99.99,,2013-05-27 05:22:00,
2013-05-27 01:32:00,34.0,32.0,-100.00,SW,235,0.0,1.0,94,0.00,,,-99.99,,2013-05-27 05:32:00,
2013-05-27 01:42:00,34.0,32.0,-100.00,SW,230,0.0,1.0,94,0.00,,,-99.99,,2013-05-27 05:42:00,
2013-05-27 01:52:00,33.0,32.0,-100.00,WSW,255,0.0,1.0,94,0.00,,,-99.99,,2013-05-27 05:52:00,
2013-05-27 02:02:00,33.0,32.0,-100.00,SW,225,0.0,1.0,94,0.00,,,-99.99,,2013-05-27 06:02:00,
2013-05-27 02:11:00,33.0,31.0,-100.00,WSW,245,0.0,1.0,94,0.00,,,-99.99,,2013-05-27 06:11:00,
2013-05-27 02:22:00,33.0,32.0,-100.00,WSW,250,0.0,0.0,94,0.00,,,-99.99,,2013-05-27 06:22:00,
2013-05-27 02:32:00,33.0,32.0,-100.00,WSW,255,0.0,0.0,94,0.00,,,-99.99,,2013-05-27 06:32:00,
2013-05-27 02:42:00,33.0,32.0,-100.00,WSW,240,0.0,0.0,94,0.00,,,-99.99,,2013-05-27 06:42:00,
2013-05-27 02:52:00,33.0,32.0,-100.00,West,260,0.0,1.0,94,0.00,,,-99.99,,2013-05-27 06:52:00,
2013-05-27 03:02:00,33.0,32.0,-100.00,WSW,240,0.0,1.0,94,0.00,,,-99.99,,2013-05-27 07:02:00,
2013-05-27 03:11:00,33.0,31.0,-100.00,SW,225,0.0,1.0,94,0.00,,,-99.99,,2013-05-27 07:11:00,
2013-05-27 03:21:00,32.0,31.0,-100.00,NNW,330,1.0,1.0,94,0.00,,,-99.99,,2013-05-27 07:21:00,
2013-05-27 03:32:00,33.0,31.0,-100.00,SW,235,0.0,1.0,94,0.00,,,-99.99,,2013-05-27 07:32:00,
2013-05-27 03:42:00,32.0,31.0,-100.00,West,265,0.0,1.0,94,0.00,,,-99.99,,2013-05-27 07:42:00,
2013-05-27 03:52:00,32.0,31.0,-100.00,SW,230,0.0,1.0,94,0.00,,,-99.99,,2013-05-27 07:52:00,
2013-05-27 04:02:00,32.0,30.0,-100.00,West,270,0.0,1.0,94,0.00,,,-99.99,,2013-05-27 08:02:00,
2013-05-27 04:11:00,32.0,31.0,-100.00,SSE,160,1.0,2.0,94,0.00,,,-99.99,,2013-05-27 08:11:00,
2013-05-27 04:22:00,32.0,31.0,-100.00,SSW,195,2.0,3.0,95,0.00,,,-99.99,,2013-05-27 08:22:00,
2013-05-27 04:33:00,33.0,31.0,-100.00,South,180,1.0,3.0,94,0.00,,,-99.99,,2013-05-27 08:33:00,
2013-05-27 04:42:00,32.0,31.0,-100.00,West,280,0.0,1.0,94,0.00,,,-99.99,,2013-05-27 08:42:00,
2013-05-27 04:52:00,32.0,31.0,-100.00,NNE,15,1.0,1.0,95,0.00,,,-99.99,,2013-05-27 08:52:00,
2013-05-27 05:02:00,33.0,32.0,-100.00,SSE,165,2.0,3.0,95,0.00,,,-99.99,,2013-05-27 09:02:00,
2013-05-27 05:11:00,33.0,32.0,-100.00,WSW,250,0.0,2.0,95,0.00,,,-99.99,,2013-05-27 09:11:00,
2013-05-27 05:21:00,32.0,31.0,-100.00,NW,325,2.0,3.0,95,0.00,,,-99.99,,2013-05-27 09:21:00,
2013-05-27 05:33:00,32.0,30.0,-100.00,NNW,335,2.0,2.0,95,0.00,,,-99.99,,2013-05-27 09:33:00,
2013-05-27 05:42:00,32.0,31.0,-100.00,West,265,0.0,2.0,95,0.00,,,-99.99,,2013-05-27 09:42:00,
2013-05-27 05:53:00,32.0,31.0,-100.00,WSW,250,0.0,1.0,95,0.00,,,-99.99,,2013-05-27 09:53:00,
2013-05-27 06:03:00,33.0,31.0,-100.00,SW,220,0.0,1.0,95,0.00,,,-99.99,,2013-05-27 10:03:00,
2013-05-27 06:12:00,33.0,31.0,-100.00,WNW,290,1.0,1.0,95,0.00,,,-99.99,,2013-05-27 10:12:00,
2013-05-27 06:22:00,33.0,31.0,-100.00,WSW,240,0.0,1.0,95,0.00,,,-99.99,,2013-05-27 10:22:00,
2013-05-27 06:32:00,33.0,32.0,-100.00,West,270,0.0,1.0,95,0.00,,,-99.99,,2013-05-27 10:32:00,
2013-05-27 06:42:00,34.0,33.0,-100.00,NW,325,0.0,1.0,95,0.00,,,-99.99,,2013-05-27 10:42:00,
2013-05-27 06:52:00,34.0,33.0,-100.00,NNW,340,2.0,2.0,95,0.00,,,-99.99,,2013-05-27 10:52:00,
2013-05-27 07:02:00,35.0,34.0,-100.00,NNW,330,1.0,2.0,95,0.00,,,-99.99,,2013-05-27 11:02:00,
2013-05-27 07:11:00,36.0,35.0,-100.00,West,275,0.0,2.0,95,0.00,,,-99.99,,2013-05-27 11:11:00,
2013-05-27 07:22:00,38.0,36.0,-100.00,WSW,255,0.0,1.0,95,0.00,,,-99.99,,2013-05-27 11:22:00,
2013-05-27 07:32:00,37.0,35.0,-100.00,NNW,335,2.0,3.0,95,0.00,,,-99.99,,2013-05-27 11:32:00,
2013-05-27 07:42:00,38.0,37.0,-100.00,WSW,255,0.0,2.0,95,0.00,,,-99.99,,2013-05-27 11:42:00,
2013-05-27 07:52:00,40.0,39.0,-100.00,WSW,240,0.0,2.0,95,0.00,,,-99.99,,2013-05-27 11:52:00,
2013-05-27 08:01:00,40.0,39.0,-100.00,NNE,30,0.0,3.0,95,0.00,,,-99.99,,2013-05-27 12:01:00,
2013-05-27 08:11:00,42.0,40.0,-100.00,NW,320,1.0,2.0,93,0.00,,,-99.99,,2013-05-27 12:11:00,
2013-05-27 08:22:00,42.0,39.0,-100.00,North,10,1.0,3.0,90,0.00,,,-99.99,,2013-05-27 12:22:00,
2013-05-27 08:32:00,42.0,39.0,-100.00,East,85,1.0,3.0,89,0.00,,,-99.99,,2013-05-27 12:32:00,
2013-05-27 08:42:00,42.0,39.0,-100.00,NE,35,1.0,3.0,87,0.00,,,-99.99,,2013-05-27 12:42:00,
2013-05-27 08:52:00,43.0,40.0,-100.00,North,350,1.0,3.0,87,0.00,,,-99.99,,2013-05-27 12:52:00,
2013-05-27 09:02:00,44.0,39.0,-100.00,SE,130,1.0,4.0,83,0.00,,,-99.99,,2013-05-27 13:02:00,
2013-05-27 09:11:00,46.0,40.0,-100.00,ESE,115,1.0,2.0,78,0.00,,,-99.99,,2013-05-27 13:11:00,
2013-05-27 09:22:00,48.0,40.0,-100.00,NNW,345,1.0,2.0,72,0.00,,,-99.99,,2013-05-27 13:22:00,
2013-05-27 09:32:00,49.0,37.0,-100.00,NNW,340,7.0,10.0,63,0.00,,,-99.99,,2013-05-27 13:32:00,
2013-05-27 09:42:00,50.0,38.0,-100.00,NNW,340,4.0,9.0,63,0.00,,,-99.99,,2013-05-27 13:42:00,
2013-05-27 09:52:00,52.0,38.0,-100.00,NW,305,3.0,9.0,59,0.00,,,-99.99,,2013-05-27 13:52:00,
2013-05-27 10:02:00,52.0,37.0,-100.00,NW,325,6.0,12.0,57,0.00,,,-99.99,,2013-05-27 14:02:00,
2013-05-27 10:11:00,53.0,36.0,-100.00,WNW,290,2.0,9.0,52,0.00,,,-99.99,,2013-05-27 14:11:00,
2013-05-27 10:22:00,53.0,36.0,-100.00,NNW,340,7.0,16.0,53,0.00,,,-99.99,,2013-05-27 14:22:00,
2013-05-27 10:32:00,54.0,36.0,-100.00,West,260,1.0,11.0,51,0.00,,,-99.99,,2013-05-27 14:32:00,
2013-05-27 10:42:00,54.0,35.0,-100.00,NNW,335,7.0,14.0,48,0.00,,,-99.99,,2013-05-27 14:42:00,
2013-05-27 10:52:00,55.0,36.0,-100.00,NNW,340,7.0,11.0,48,0.00,,,-99.99,,2013-05-27 14:52:00,
2013-05-27 11:01:00,56.0,35.0,-100.00,NNW,340,5.0,11.0,45,0.00,,,-99.99,,2013-05-27 15:01:00,
2013-05-27 11:11:00,56.0,34.0,-100.00,NNW,335,6.0,11.0,42,0.00,,,-99.99,,2013-05-27 15:11:00,
2013-05-27 11:21:00,56.0,32.0,-100.00,NNW,335,9.0,17.0,39,0.00,,,-99.99,,2013-05-27 15:21:00,
2013-05-27 11:33:00,56.0,31.0,-100.00,WSW,250,6.0,18.0,39,0.00,,,-99.99,,2013-05-27 15:33:00,
2013-05-27 11:43:00,56.0,32.0,-100.00,NW,305,5.0,18.0,40,0.00,,,-99.99,,2013-05-27 15:43:00,
2013-05-27 11:53:00,55.0,31.0,-100.00,North,355,10.0,18.0,40,0.00,,,-99.99,,2013-05-27 15:53:00,
2013-05-27 12:03:00,56.0,32.0,-100.00,NW,310,9.0,16.0,39,0.00,,,-99.99,,2013-05-27 16:03:00,
2013-05-27 12:12:00,56.0,32.0,-100.00,NW,315,8.0,15.0,39,0.00,,,-99.99,,2013-05-27 16:12:00,
2013-05-27 12:23:00,56.0,31.0,-100.00,NNW,340,7.0,16.0,38,0.00,,,-99.99,,2013-05-27 16:23:00,
2013-05-27 12:33:00,58.0,31.0,-100.00,NNW,345,6.0,12.0,34,0.00,,,-99.99,,2013-05-27 16:33:00,
2013-05-27 12:42:00,57.0,29.0,-100.00,North,350,11.0,20.0,34,0.00,,,-99.99,,2013-05-27 16:42:00,
2013-05-27 12:52:00,57.0,29.0,-100.00,NW,320,10.0,16.0,34,0.00,,,-99.99,,2013-05-27 16:52:00,
2013-05-27 13:02:00,58.0,31.0,-100.00,WNW,300,7.0,18.0,35,0.00,,,-99.99,,2013-05-27 17:02:00,
2013-05-27 13:11:00,59.0,31.0,-100.00,NW,315,8.0,17.0,34,0.00,,,-99.99,,2013-05-27 17:11:00,
2013-05-27 13:22:00,58.0,30.0,-100.00,NNW,330,11.0,19.0,34,0.00,,,-99.99,,2013-05-27 17:22:00,
2013-05-27 13:32:00,57.0,31.0,-100.00,NNW,345,5.0,11.0,36,0.00,,,-99.99,,2013-05-27 17:32:00,
2013-05-27 13:43:00,59.0,30.0,-100.00,NNW,330,5.0,9.0,33,0.00,,,-99.99,,2013-05-27 17:43:00,
2013-05-27 13:52:00,59.0,30.0,-100.00,NW,325,9.0,16.0,32,0.00,,,-99.99,,2013-05-27 17:52:00,
2013-05-27 14:02:00,59.0,30.0,-100.00,WNW,290,4.0,17.0,32,0.00,,,-99.99,,2013-05-27 18:02:00,
2013-05-27 14:11:00,60.0,27.0,-100.00,NW,310,9.0,15.0,28,0.00,,,-99.99,,2013-05-27 18:11:00,
2013-05-27 14:22:00,60.0,27.0,-100.00,NNW,335,11.0,19.0,28,0.00,,,-99.99,,2013-05-27 18:22:00,
2013-05-27 14:32:00,60.0,27.0,-100.00,NNW,335,9.0,16.0,27,0.00,,,-99.99,,2013-05-27 18:32:00,
2013-05-27 14:42:00,60.0,28.0,-100.00,NW,315,9.0,19.0,29,0.00,,,-99.99,,2013-05-27 18:42:00,
2013-05-27 14:52:00,60.0,29.0,-100.00,NW,310,6.0,14.0,30,0.00,,,-99.99,,2013-05-27 18:52:00,
2013-05-27 15:01:00,60.0,29.0,-100.00,NNW,340,11.0,17.0,29,0.00,,,-99.99,,2013-05-27 19:01:00,
2013-05-27 15:11:00,61.0,27.0,-100.00,NW,325,7.0,17.0,28,0.00,,,-99.99,,2013-05-27 19:11:00,
2013-05-27 15:22:00,60.0,27.0,-100.00,NNW,330,12.0,18.0,28,0.00,,,-99.99,,2013-05-27 19:22:00,
2013-05-27 15:32:00,61.0,30.0,-100.00,North,5,7.0,16.0,31,0.00,,,-99.99,,2013-05-27 19:32:00,
2013-05-27 15:42:00,61.0,29.0,-100.00,NNW,345,8.0,17.0,29,0.00,,,-99.99,,2013-05-27 19:42:00,
2013-05-27 15:52:00,62.0,31.0,-100.00,NNW,335,10.0,19.0,31,0.00,,,-99.99,,2013-05-27 19:52:00,
2013-05-27 16:02:00,61.0,30.0,-100.00,NNW,335,6.0,17.0,31,0.00,,,-99.99,,2013-05-27 20:02:00,
2013-05-27 16:11:00,61.0,31.0,-100.00,West,275,3.0,9.0,31,0.00,,,-99.99,,2013-05-27 20:11:00,
2013-05-27 16:22:00,61.0,32.0,-100.00,NNW,330,2.0,13.0,33,0.00,,,-99.99,,2013-05-27 20:22:00,
2013-05-27 16:32:00,62.0,32.0,-100.00,West,275,6.0,14.0,32,0.00,,,-99.99,,2013-05-27 20:32:00,
2013-05-27 16:42:00,61.0,26.0,-100.00,NW,315,7.0,16.0,26,0.00,,,-99.99,,2013-05-27 20:42:00,
2013-05-27 16:52:00,61.0,27.0,-100.00,North,5,7.0,15.0,27,0.00,,,-99.99,,2013-05-27 20:52:00,
2013-05-27 17:01:00,61.0,32.0,-100.00,NW,320,7.0,13.0,32,0.00,,,-99.99,,2013-05-27 21:01:00,
2013-05-27 17:12:00,61.0,33.0,-100.00,West,275,2.0,10.0,34,0.00,,,-99.99,,2013-05-27 21:12:00,
2013-05-27 17:21:00,60.0,33.0,-100.00,WNW,300,2.0,9.0,35,0.00,,,-99.99,,2013-05-27 21:21:00,
2013-05-27 17:33:00,60.0,31.0,-100.00,NW,305,3.0,14.0,34,0.00,,,-99.99,,2013-05-27 21:33:00,
2013-05-27 17:43:00,61.0,32.0,-100.00,NNW,340,3.0,10.0,33,0.00,,,-99.99,,2013-05-27 21:43:00,
2013-05-27 17:53:00,62.0,32.0,-100.00,NW,320,4.0,14.0,33,0.00,,,-99.99,,2013-05-27 21:53:00,
2013-05-27 18:02:00,61.0,32.0,-100.00,NNW,345,4.0,12.0,32,0.00,,,-99.99,,2013-05-27 22:02:00,
2013-05-27 18:12:00,60.0,31.0,-100.00,NNW,330,7.0,11.0,32,0.00,,,-99.99,,2013-05-27 22:12:00,
2013-05-27 18:22:00,61.0,31.0,-100.00,North,355,2.0,8.0,32,0.00,,,-99.99,,2013-05-27 22:22:00,
2013-05-27 18:33:00,61.0,31.0,-100.00,North,355,2.0,8.0,32,0.00,,,-99.99,,2013-05-27 22:33:00,
2013-05-27 18:42:00,61.0,31.0,-100.00,North,355,2.0,8.0,32,0.00,,,-99.99,,2013-05-27 22:42:00,
2013-05-27 18:52:00,61.0,31.0,-100.00,North,355,2.0,8.0,32,0.00,,,-99.99,,2013-05-27 22:52:00,
2013-05-27 19:02:00,60.0,31.0,-100.00,NW,310,7.0,13.0,33,0.00,,,-99.99,,2013-05-27 23:02:00,
2013-05-27 19:12:00,60.0,32.0,-100.00,NNW,330,4.0,9.0,35,0.00,,,-99.99,,2013-05-27 23:12:00,
2013-05-27 19:22:00,60.0,33.0,-100.00,NNW,335,2.0,9.0,36,0.00,,,-99.99,,2013-05-27 23:22:00,
2013-05-27 19:32:00,59.0,31.0,-100.00,West,265,4.0,11.0,34,0.00,,,-99.99,,2013-05-27 23:32:00,
2013-05-27 19:42:00,59.0,32.0,-100.00,NNW,330,4.0,7.0,35,0.00,,,-99.99,,2013-05-27 23:42:00,
2013-05-27 19:52:00,58.0,33.0,-100.00,NW,320,2.0,7.0,37,0.00,,,-99.99,,2013-05-27 23:52:00,
2013-05-27 20:01:00,58.0,33.0,-100.00,NW,320,2.0,5.0,38,0.00,,,-99.99,,2013-05-28 00:01:00,
2013-05-27 20:11:00,57.0,40.0,-100.00,NW,315,1.0,3.0,53,0.00,,,-99.99,,2013-05-28 00:11:00,
2013-05-27 20:21:00,54.0,40.0,-100.00,SW,225,1.0,1.0,58,0.00,,,-99.99,,2013-05-28 00:21:00,
2013-05-27 20:32:00,52.0,40.0,-100.00,SW,225,1.0,1.0,62,0.00,,,-99.99,,2013-05-28 00:32:00,
2013-05-27 20:42:00,51.0,40.0,-100.00,SW,230,1.0,1.0,66,0.00,,,-99.99,,2013-05-28 00:42:00,
2013-05-27 20:52:00,50.0,40.0,-100.00,West,270,1.0,1.0,67,0.00,,,-99.99,,2013-05-28 00:52:00,
2013-05-27 21:01:00,49.0,39.0,-100.00,West,270,0.0,1.0,69,0.00,,,-99.99,,2013-05-28 01:01:00,
2013-05-27 21:11:00,48.0,39.0,-100.00,WSW,240,1.0,1.0,70,0.00,,,-99.99,,2013-05-28 01:11:00,
2013-05-27 21:22:00,47.0,39.0,-100.00,NNW,345,0.0,1.0,72,0.00,,,-99.99,,2013-05-28 01:22:00,
2013-05-27 21:32:00,47.0,38.0,-100.00,West,280,0.0,1.0,72,0.00,,,-99.99,,2013-05-28 01:32:00,
2013-05-27 21:41:00,46.0,38.0,-100.00,WSW,240,1.0,1.0,74,0.00,,,-99.99,,2013-05-28 01:41:00,
2013-05-27 21:52:00,45.0,39.0,-100.00,WSW,250,0.0,1.0,78,0.00,,,-99.99,,2013-05-28 01:52:00,
2013-05-27 22:02:00,45.0,39.0,-100.00,SW,230,0.0,1.0,79,0.00,,,-99.99,,2013-05-28 02:02:00,
2013-05-27 22:11:00,45.0,39.0,-100.00,WSW,240,1.0,1.0,79,0.00,,,-99.99,,2013-05-28 02:11:00,
2013-05-27 22:22:00,44.0,39.0,-100.00,WSW,240,1.0,1.0,80,0.00,,,-99.99,,2013-05-28 02:22:00,
2013-05-27 22:32:00,44.0,38.0,-100.00,SW,230,0.0,1.0,82,0.00,,,-99.99,,2013-05-28 02:32:00,
2013-05-27 22:42:00,43.0,38.0,-100.00,WSW,250,1.0,1.0,83,0.00,,,-99.99,,2013-05-28 02:42:00,
2013-05-27 22:52:00,43.0,38.0,-100.00,SW,235,1.0,1.0,84,0.00,,,-99.99,,2013-05-28 02:52:00,
2013-05-27 23:01:00,42.0,38.0,-100.00,WSW,255,1.0,1.0,85,0.00,,,-99.99,,2013-05-28 03:01:00,
2013-05-27 23:11:00,42.0,38.0,-100.00,WSW,240,1.0,1.0,86,0.00,,,-99.99,,2013-05-28 03:11:00,
2013-05-27 23:21:00,42.0,38.0,-100.00,WSW,240,1.0,1.0,87,0.00,,,-99.99,,2013-05-28 03:21:00,
2013-05-27 23:33:00,42.0,38.0,-100.00,WSW,240,1.0,1.0,88,0.00,,,-99.99,,2013-05-28 03:33:00,
2013-05-27 23:43:00,41.0,38.0,-100.00,SW,235,1.0,1.0,88,0.00,,,-99.99,,2013-05-28 03:43:00,
2013-05-27 23:53:00,41.0,38.0,-100.00,SW,230,1.0,1.0,89,0.00,,,-99.99,,2013-05-28 03:53:00,